M\v Black Rhino — V7TR7 — position and weather

sailwx.info

Track history (hours):
 
Tides and Currents Weather Stations Pressure Air Temp Water Temp Dewpoint Dewpoint Depression Visibility Wind Speed Wind Dir Waves Ship Positions

M\v Black Rhino

Last reported at 2017-Jan-21 03:32 UTC. Time now 2017-Jan-21 04:21 UTC.
Position S 29°53' E 031°00'.

Length 101 m; draft 4.4 m.

Type: Ship. MMSI: 538090408.

Date/timePositionNaut miles runAvg speedWind from/ knotsBaromVisibWave heightAir tempDewpointWater temp
2017-Jan-21 03:32S 29°53' E 031°00'0 0.0
2017-Jan-21 02:32S 29°53' E 031°00'0 0.0
2017-Jan-21 01:32S 29°53' E 031°00'0 0.0
2017-Jan-21 00:32S 29°53' E 031°00'0 0.0
2017-Jan-20 23:29S 29°53' E 031°00'0 0.0
2017-Jan-20 22:32S 29°53' E 031°00'0 0.0
2017-Jan-20 21:32S 29°53' E 031°00'0 0.0
2017-Jan-20 20:32S 29°53' E 031°00'0 0.0
2017-Jan-20 19:32S 29°53' E 031°00'0 0.0
2017-Jan-20 18:32S 29°53' E 031°00'0 0.0
2017-Jan-20 17:32S 29°53' E 031°00'0 0.0
2017-Jan-20 16:32S 29°53' E 031°00'0 0.0
2017-Jan-20 15:32S 29°53' E 031°00'0 0.0
2017-Jan-20 14:32S 29°53' E 031°00'0 0.0
2017-Jan-20 13:32S 29°53' E 031°00'0 0.0
2017-Jan-20 12:31S 29°53' E 031°00'0 0.0
2017-Jan-20 11:31S 29°53' E 031°00'0 0.0
2017-Jan-20 10:31S 29°53' E 031°00'0 0.0
2017-Jan-20 09:31S 29°53' E 031°00'0 0.0
2017-Jan-20 08:31S 29°53' E 031°00'0 0.0
2017-Jan-20 07:31S 29°53' E 031°00'0 0.0
2017-Jan-20 06:31S 29°53' E 031°00'0 0.0
2017-Jan-20 05:31S 29°53' E 031°00'0 0.0
2017-Jan-20 04:31S 29°53' E 031°00'0 0.0
2017-Jan-20 03:31S 29°53' E 031°00'0 0.0
2017-Jan-20 02:31S 29°53' E 031°00'0 0.0
2017-Jan-20 01:31S 29°53' E 031°00'0 0.0
2017-Jan-20 00:28S 29°53' E 031°00'0 0.0
2017-Jan-19 23:33S 29°53' E 031°00'0 0.0
2017-Jan-19 22:31S 29°53' E 031°00'0 0.0
2017-Jan-19 21:31S 29°53' E 031°00'0 0.0
2017-Jan-19 20:31S 29°53' E 031°00'0 0.0
2017-Jan-19 19:28S 29°53' E 031°00'0 0.0
2017-Jan-19 17:33S 29°53' E 031°00'0 0.0
2017-Jan-19 16:33S 29°53' E 031°00'0 0.0
2017-Jan-19 15:33S 29°53' E 031°00'0 0.0
2017-Jan-19 14:33S 29°53' E 031°00'2 1.8
2017-Jan-19 13:33S 29°53' E 031°02'0 0.3
2017-Jan-19 12:31S 29°52' E 031°03'0 0.0
2017-Jan-19 11:31S 29°52' E 031°03'0 0.0
2017-Jan-19 10:31S 29°52' E 031°03'0 0.0
2017-Jan-19 09:31S 29°52' E 031°03'0 0.0
2017-Jan-19 08:31S 29°52' E 031°03'0 0.0
2017-Jan-19 07:31S 29°52' E 031°03'0 0.0
2017-Jan-19 06:31S 29°52' E 031°03'0 0.0
2017-Jan-19 05:31S 29°52' E 031°03'0 0.0
2017-Jan-19 04:31S 29°52' E 031°03'0 0.0
2017-Jan-19 03:31S 29°52' E 031°03'0 0.0
2017-Jan-19 02:31S 29°52' E 031°03'0 0.0
2017-Jan-19 01:31S 29°52' E 031°03'0 0.0
2017-Jan-19 00:31S 29°52' E 031°03'0 0.0
2017-Jan-18 23:31S 29°52' E 031°03'0 0.0
2017-Jan-18 22:31S 29°52' E 031°03'0 0.0
2017-Jan-18 21:28S 29°52' E 031°03'0 0.0
2017-Jan-18 20:31S 29°52' E 031°03'0 0.4
2017-Jan-18 19:33S 29°52' E 031°03'5 5.1
2017-Jan-18 18:33S 29°50' E 031°08'1 0.7
2017-Jan-18 17:33S 29°51' E 031°08'2 1.7
2017-Jan-18 16:33S 29°49' E 031°07'1 0.6
2017-Jan-18 15:34S 29°49' E 031°07'2 1.6
2017-Jan-18 14:33S 29°50' E 031°08'3 2.6
2017-Jan-18 13:33S 29°51' E 031°11'3 2.8
2017-Jan-18 12:33S 29°49' E 031°13'6 5.1
2017-Jan-18 11:29S 29°43' E 031°14'1212.8
2017-Jan-18 10:33S 29°36' E 031°25'1212.1
2017-Jan-18 09:33S 29°29' E 031°36'1312.5
2017-Jan-18 08:33S 29°21' E 031°48'  
2017-Jan-14 12:28S 29°08' E 031°57'1112.4
2017-Jan-14 11:33S 29°16' E 031°48'1212.4
2017-Jan-14 10:33S 29°25' E 031°38'1312.9
2017-Jan-14 09:33S 29°34' E 031°27'1313.2
2017-Jan-14 08:33S 29°44' E 031°17'1312.6
2017-Jan-14 07:33S 29°51' E 031°05'2 2.4
2017-Jan-14 06:33S 29°52' E 031°03'0 0.0
2017-Jan-14 05:34S 29°52' E 031°03'0 0.0
2017-Jan-14 04:31S 29°52' E 031°03'0 0.0
2017-Jan-14 03:33S 29°52' E 031°03'0 0.0
2017-Jan-13 23:32S 29°52' E 031°03'0 0.0
2017-Jan-13 22:29S 29°52' E 031°03'0 0.0
2017-Jan-13 21:32S 29°52' E 031°03'0 0.0
2017-Jan-13 20:32S 29°52' E 031°03'0 0.0
2017-Jan-13 19:32S 29°52' E 031°03'0 0.0
2017-Jan-13 18:32S 29°52' E 031°03'0 0.0
2017-Jan-13 17:32S 29°52' E 031°03'0 0.0
2017-Jan-13 16:32S 29°52' E 031°03'0 0.0
2017-Jan-13 15:32S 29°52' E 031°03'0 0.0
2017-Jan-13 14:32S 29°52' E 031°03'0 0.0
2017-Jan-13 13:32S 29°52' E 031°03'0 0.0
2017-Jan-13 12:32S 29°52' E 031°03'0 0.0
2017-Jan-13 11:32S 29°52' E 031°03'0 0.0
2017-Jan-13 10:32S 29°52' E 031°03'0 0.0
2017-Jan-13 09:32S 29°52' E 031°03'0 0.0
2017-Jan-13 08:32S 29°52' E 031°03'0 0.0
2017-Jan-13 07:32S 29°52' E 031°03'0 0.0
2017-Jan-13 06:32S 29°52' E 031°03'0 0.0
2017-Jan-13 05:32S 29°52' E 031°03'0 0.0
2017-Jan-13 04:32S 29°52' E 031°03'0 0.0
2017-Jan-13 03:32S 29°52' E 031°03'0 0.0
2017-Jan-13 02:29S 29°52' E 031°03'0 0.0
2017-Jan-13 01:32S 29°52' E 031°03'0 0.0
2017-Jan-13 00:32S 29°52' E 031°03'0 0.0
2017-Jan-12 23:32S 29°52' E 031°03'0 0.0
2017-Jan-12 22:32S 29°52' E 031°03'0 0.0
2017-Jan-12 21:32S 29°52' E 031°03'0 0.0
2017-Jan-12 20:32S 29°52' E 031°03'0 0.0
2017-Jan-12 19:32S 29°52' E 031°03'0 0.0
2017-Jan-12 18:32S 29°52' E 031°03'0 0.0
2017-Jan-12 17:32S 29°52' E 031°03'0 0.0
2017-Jan-12 16:32S 29°52' E 031°03'0 0.0
2017-Jan-12 15:32S 29°52' E 031°03'0 0.0
2017-Jan-12 14:32S 29°52' E 031°03'0 0.0
2017-Jan-12 13:32S 29°52' E 031°03'0 0.0
2017-Jan-12 12:32S 29°52' E 031°03'0 0.0
2017-Jan-12 11:32S 29°52' E 031°03'0 0.0
2017-Jan-12 10:30S 29°52' E 031°03'0 0.0
2017-Jan-12 09:33S 29°52' E 031°03'0 0.0
2017-Jan-12 08:33S 29°52' E 031°03'0 0.0
2017-Jan-12 07:33S 29°52' E 031°03'0 0.0
2017-Jan-12 06:33S 29°52' E 031°03'0 0.0
2017-Jan-12 05:33S 29°52' E 031°03'0 0.0
2017-Jan-12 04:33S 29°52' E 031°03'0 0.0
2017-Jan-12 03:33S 29°52' E 031°03'0 0.0
2017-Jan-12 02:33S 29°52' E 031°03'0 0.0
2017-Jan-12 01:33S 29°52' E 031°03'0 0.0
2017-Jan-12 00:33S 29°52' E 031°03'0 0.0
2017-Jan-11 23:33S 29°52' E 031°03'0 0.0
2017-Jan-11 22:33S 29°52' E 031°03'0 0.0
2017-Jan-11 21:33S 29°52' E 031°03'0 0.0
2017-Jan-11 20:33S 29°52' E 031°03'0 0.0
2017-Jan-11 19:33S 29°52' E 031°03'0 0.0
2017-Jan-11 18:33S 29°52' E 031°03'0 0.0
2017-Jan-11 17:33S 29°52' E 031°03'0 0.0
2017-Jan-11 16:33S 29°52' E 031°03'0 0.0
2017-Jan-11 15:33S 29°52' E 031°03'0 0.0
2017-Jan-11 14:33S 29°52' E 031°03'0 0.0
2017-Jan-11 13:33S 29°52' E 031°03'0 0.0
2017-Jan-11 12:33S 29°52' E 031°03'0 0.0
2017-Jan-11 11:33S 29°52' E 031°03'0 0.0
2017-Jan-11 10:33S 29°52' E 031°03'0 0.0
2017-Jan-11 09:33S 29°52' E 031°03'0 0.0
2017-Jan-11 08:33S 29°52' E 031°03'0 0.0
2017-Jan-11 07:33S 29°52' E 031°03'0 0.0
2017-Jan-11 06:33S 29°52' E 031°03'0 0.0
2017-Jan-11 05:33S 29°52' E 031°03'0 0.0
2017-Jan-11 04:33S 29°52' E 031°03'0 0.0
2017-Jan-11 03:33S 29°52' E 031°03'  
Track history (hours):
 
Tides and Currents Weather Stations Pressure Air Temp Water Temp Dewpoint Dewpoint Depression Visibility Wind Speed Wind Dir Waves Ship Positions

M\v Black Rhino

Last reported at 2017-Jan-21 03:32 UTC. Time now 2017-Jan-21 04:21 UTC.
Position S 29°53' E 031°00'.

Length 101 m; draft 4.4 m.

Type: Ship. MMSI: 538090408.

Date/timePositionNaut miles runAvg speedWind from/ knotsBaromVisibWave heightAir tempDewpointWater temp
2017-Jan-21 03:32S 29°53' E 031°00'0 0.0
2017-Jan-21 02:32S 29°53' E 031°00'0 0.0
2017-Jan-21 01:32S 29°53' E 031°00'0 0.0
2017-Jan-21 00:32S 29°53' E 031°00'0 0.0
2017-Jan-20 23:29S 29°53' E 031°00'0 0.0
2017-Jan-20 22:32S 29°53' E 031°00'0 0.0
2017-Jan-20 21:32S 29°53' E 031°00'0 0.0
2017-Jan-20 20:32S 29°53' E 031°00'0 0.0
2017-Jan-20 19:32S 29°53' E 031°00'0 0.0
2017-Jan-20 18:32S 29°53' E 031°00'0 0.0
2017-Jan-20 17:32S 29°53' E 031°00'0 0.0
2017-Jan-20 16:32S 29°53' E 031°00'0 0.0
2017-Jan-20 15:32S 29°53' E 031°00'0 0.0
2017-Jan-20 14:32S 29°53' E 031°00'0 0.0
2017-Jan-20 13:32S 29°53' E 031°00'0 0.0
2017-Jan-20 12:31S 29°53' E 031°00'0 0.0
2017-Jan-20 11:31S 29°53' E 031°00'0 0.0
2017-Jan-20 10:31S 29°53' E 031°00'0 0.0
2017-Jan-20 09:31S 29°53' E 031°00'0 0.0
2017-Jan-20 08:31S 29°53' E 031°00'0 0.0
2017-Jan-20 07:31S 29°53' E 031°00'0 0.0
2017-Jan-20 06:31S 29°53' E 031°00'0 0.0
2017-Jan-20 05:31S 29°53' E 031°00'0 0.0
2017-Jan-20 04:31S 29°53' E 031°00'0 0.0
2017-Jan-20 03:31S 29°53' E 031°00'0 0.0
2017-Jan-20 02:31S 29°53' E 031°00'0 0.0
2017-Jan-20 01:31S 29°53' E 031°00'0 0.0
2017-Jan-20 00:28S 29°53' E 031°00'0 0.0
2017-Jan-19 23:33S 29°53' E 031°00'0 0.0
2017-Jan-19 22:31S 29°53' E 031°00'0 0.0
2017-Jan-19 21:31S 29°53' E 031°00'0 0.0
2017-Jan-19 20:31S 29°53' E 031°00'0 0.0
2017-Jan-19 19:28S 29°53' E 031°00'0 0.0
2017-Jan-19 17:33S 29°53' E 031°00'0 0.0
2017-Jan-19 16:33S 29°53' E 031°00'0 0.0
2017-Jan-19 15:33S 29°53' E 031°00'0 0.0
2017-Jan-19 14:33S 29°53' E 031°00'2 1.8
2017-Jan-19 13:33S 29°53' E 031°02'0 0.3
2017-Jan-19 12:31S 29°52' E 031°03'0 0.0
2017-Jan-19 11:31S 29°52' E 031°03'0 0.0
2017-Jan-19 10:31S 29°52' E 031°03'0 0.0
2017-Jan-19 09:31S 29°52' E 031°03'0 0.0
2017-Jan-19 08:31S 29°52' E 031°03'0 0.0
2017-Jan-19 07:31S 29°52' E 031°03'0 0.0
2017-Jan-19 06:31S 29°52' E 031°03'0 0.0
2017-Jan-19 05:31S 29°52' E 031°03'0 0.0
2017-Jan-19 04:31S 29°52' E 031°03'0 0.0
2017-Jan-19 03:31S 29°52' E 031°03'0 0.0
2017-Jan-19 02:31S 29°52' E 031°03'0 0.0
2017-Jan-19 01:31S 29°52' E 031°03'0 0.0
2017-Jan-19 00:31S 29°52' E 031°03'0 0.0
2017-Jan-18 23:31S 29°52' E 031°03'0 0.0
2017-Jan-18 22:31S 29°52' E 031°03'0 0.0
2017-Jan-18 21:28S 29°52' E 031°03'0 0.0
2017-Jan-18 20:31S 29°52' E 031°03'0 0.4
2017-Jan-18 19:33S 29°52' E 031°03'5 5.1
2017-Jan-18 18:33S 29°50' E 031°08'1 0.7
2017-Jan-18 17:33S 29°51' E 031°08'2 1.7
2017-Jan-18 16:33S 29°49' E 031°07'1 0.6
2017-Jan-18 15:34S 29°49' E 031°07'2 1.6
2017-Jan-18 14:33S 29°50' E 031°08'3 2.6
2017-Jan-18 13:33S 29°51' E 031°11'3 2.8
2017-Jan-18 12:33S 29°49' E 031°13'6 5.1
2017-Jan-18 11:29S 29°43' E 031°14'1212.8
2017-Jan-18 10:33S 29°36' E 031°25'1212.1
2017-Jan-18 09:33S 29°29' E 031°36'1312.5
2017-Jan-18 08:33S 29°21' E 031°48'  
2017-Jan-14 12:28S 29°08' E 031°57'1112.4
2017-Jan-14 11:33S 29°16' E 031°48'1212.4
2017-Jan-14 10:33S 29°25' E 031°38'1312.9
2017-Jan-14 09:33S 29°34' E 031°27'1313.2
2017-Jan-14 08:33S 29°44' E 031°17'1312.6
2017-Jan-14 07:33S 29°51' E 031°05'2 2.4
2017-Jan-14 06:33S 29°52' E 031°03'0 0.0
2017-Jan-14 05:34S 29°52' E 031°03'0 0.0
2017-Jan-14 04:31S 29°52' E 031°03'0 0.0
2017-Jan-14 03:33S 29°52' E 031°03'0 0.0
2017-Jan-13 23:32S 29°52' E 031°03'0 0.0
2017-Jan-13 22:29S 29°52' E 031°03'0 0.0
2017-Jan-13 21:32S 29°52' E 031°03'0 0.0
2017-Jan-13 20:32S 29°52' E 031°03'0 0.0
2017-Jan-13 19:32S 29°52' E 031°03'0 0.0
2017-Jan-13 18:32S 29°52' E 031°03'0 0.0
2017-Jan-13 17:32S 29°52' E 031°03'0 0.0
2017-Jan-13 16:32S 29°52' E 031°03'0 0.0
2017-Jan-13 15:32S 29°52' E 031°03'0 0.0
2017-Jan-13 14:32S 29°52' E 031°03'0 0.0
2017-Jan-13 13:32S 29°52' E 031°03'0 0.0
2017-Jan-13 12:32S 29°52' E 031°03'0 0.0
2017-Jan-13 11:32S 29°52' E 031°03'0 0.0
2017-Jan-13 10:32S 29°52' E 031°03'0 0.0
2017-Jan-13 09:32S 29°52' E 031°03'0 0.0
2017-Jan-13 08:32S 29°52' E 031°03'0 0.0
2017-Jan-13 07:32S 29°52' E 031°03'0 0.0
2017-Jan-13 06:32S 29°52' E 031°03'0 0.0
2017-Jan-13 05:32S 29°52' E 031°03'0 0.0
2017-Jan-13 04:32S 29°52' E 031°03'0 0.0
2017-Jan-13 03:32S 29°52' E 031°03'0 0.0
2017-Jan-13 02:29S 29°52' E 031°03'0 0.0
2017-Jan-13 01:32S 29°52' E 031°03'0 0.0
2017-Jan-13 00:32S 29°52' E 031°03'0 0.0
2017-Jan-12 23:32S 29°52' E 031°03'0 0.0
2017-Jan-12 22:32S 29°52' E 031°03'0 0.0
2017-Jan-12 21:32S 29°52' E 031°03'0 0.0
2017-Jan-12 20:32S 29°52' E 031°03'0 0.0
2017-Jan-12 19:32S 29°52' E 031°03'0 0.0
2017-Jan-12 18:32S 29°52' E 031°03'0 0.0
2017-Jan-12 17:32S 29°52' E 031°03'0 0.0
2017-Jan-12 16:32S 29°52' E 031°03'0 0.0
2017-Jan-12 15:32S 29°52' E 031°03'0 0.0
2017-Jan-12 14:32S 29°52' E 031°03'0 0.0
2017-Jan-12 13:32S 29°52' E 031°03'0 0.0
2017-Jan-12 12:32S 29°52' E 031°03'0 0.0
2017-Jan-12 11:32S 29°52' E 031°03'0 0.0
2017-Jan-12 10:30S 29°52' E 031°03'0 0.0
2017-Jan-12 09:33S 29°52' E 031°03'0 0.0
2017-Jan-12 08:33S 29°52' E 031°03'0 0.0
2017-Jan-12 07:33S 29°52' E 031°03'0 0.0
2017-Jan-12 06:33S 29°52' E 031°03'0 0.0
2017-Jan-12 05:33S 29°52' E 031°03'0 0.0
2017-Jan-12 04:33S 29°52' E 031°03'0 0.0
2017-Jan-12 03:33S 29°52' E 031°03'0 0.0
2017-Jan-12 02:33S 29°52' E 031°03'0 0.0
2017-Jan-12 01:33S 29°52' E 031°03'0 0.0
2017-Jan-12 00:33S 29°52' E 031°03'0 0.0
2017-Jan-11 23:33S 29°52' E 031°03'0 0.0
2017-Jan-11 22:33S 29°52' E 031°03'0 0.0
2017-Jan-11 21:33S 29°52' E 031°03'0 0.0
2017-Jan-11 20:33S 29°52' E 031°03'0 0.0
2017-Jan-11 19:33S 29°52' E 031°03'0 0.0
2017-Jan-11 18:33S 29°52' E 031°03'0 0.0
2017-Jan-11 17:33S 29°52' E 031°03'0 0.0
2017-Jan-11 16:33S 29°52' E 031°03'0 0.0
2017-Jan-11 15:33S 29°52' E 031°03'0 0.0
2017-Jan-11 14:33S 29°52' E 031°03'0 0.0
2017-Jan-11 13:33S 29°52' E 031°03'0 0.0
2017-Jan-11 12:33S 29°52' E 031°03'0 0.0
2017-Jan-11 11:33S 29°52' E 031°03'0 0.0
2017-Jan-11 10:33S 29°52' E 031°03'0 0.0
2017-Jan-11 09:33S 29°52' E 031°03'0 0.0
2017-Jan-11 08:33S 29°52' E 031°03'0 0.0
2017-Jan-11 07:33S 29°52' E 031°03'0 0.0
2017-Jan-11 06:33S 29°52' E 031°03'0 0.0
2017-Jan-11 05:33S 29°52' E 031°03'0 0.0
2017-Jan-11 04:33S 29°52' E 031°03'0 0.0
2017-Jan-11 03:33S 29°52' E 031°03'  

Dump ship's entire track history